Danville, IL

9:55 PM CDT on August 22, 2014 (GMT -0500)
Edgar County | Change Station
CLOSE
Current Station
Airport
Location: Paris,
Elevation: 653 ft
Nearby Weather Stations

Elev 653 ft 39.70 °N, 87.67 °W | Updated 20 minutes ago

Scattered Clouds
Scattered Clouds
75 °F
Feels Like 75 °F
N
0
Wind Variable Wind from North

Today
High -- | Low -- °F
--% Chance of Precip.
Yesterday
High -- | Low -- °F
Precip. -- in
6:08 AM 7:37 PM
Waning Crescent, 5% visible
Pressure 30.00 in
Visibility 5.0 miles
Clouds Scattered Clouds 9000 ft
Dew Point 74 °F
Humidity 98%
Rainfall 0.00 in
Snow Depth Not available.
UV 0 out of 12
Pollen 10.20 out of 12
Air Quality Not available.
Flu Activity Not available.
METAR KPRG 230235Z AUTO 00000KT 5SM BR SCT090 24/24 A3000 RMK AO2 LTG DSNT S T02380235

More Conditions Fewer Conditions

Pressure 30.00 in
Visibility 5.0 miles
Clouds Scattered Clouds 9000 ft
Dew Point 74 °F
Humidity 98%
Rainfall 0.00 in
Snow Depth Not available.
UV 0 out of 12
Pollen 10.20 out of 12
Air Quality Not available.
Flu Activity Not available.
METAR KPRG 230235Z AUTO 00000KT 5SM BR SCT090 24/24 A3000 RMK AO2 LTG DSNT S T02380235

More Conditions Fewer Conditions

10-Day Weather Forecast

Almanac

Astronomy

Aug. 22, 2014 Rise Set
Actual Time 6:08 AM CDT 7:37 PM CDT
Civil Twilight 5:40 AM CDT 8:05 PM CDT
Nautical Twilight 5:05 AM CDT 8:40 PM CDT
Astronomical Twilight 4:29 AM CDT 9:16 PM CDT
Moon 3:30 AM CDT (8/22) 5:45 PM CDT (8/22)
Length of Visible Light 14h 25m
Length of Day
13h 28m
Tomorrow will be 2m 26s shorter.
Waning Crescent, 5% of the Moon is Illuminated
Today
Waning Crescent
Aug 25
New
Sep 2
First Quarter
Sep 8
Full
Sep 15
Last Quarter

Today's Extremes

State Highs State Lows

Community

WunderPhotos

Upload Photos

1,746,348 photos uploaded!

WunderBlogs® & News

Nearby

Snow Depth

Station Depth Elevation
No new snow has been reported.

Earthquake Activity

City Distance Mag. Time & Date
No recent earthquake activity has been reported nearby.
Minimum magnitude displayed is 2.5.

Coastal Water Temperatures

Place Temperature
No Stations Reporting

Nearby Weather Stations